createdAt,value
2023-01-11T00:00:06.126Z,99681.63
2023-01-11T00:00:18.481Z,99686.06
2023-01-11T00:00:30.444Z,99679.19
2023-01-11T00:00:43.956Z,99684.28
2023-01-11T00:00:56.811Z,99681.63
2023-01-11T00:01:09.257Z,99672.97
2023-01-11T00:01:21.478Z,99672.03
2023-01-11T00:01:33.425Z,99675.44
2023-01-11T00:01:45.398Z,99679.69
2023-01-11T00:01:57.659Z,99677.06
2023-01-11T00:02:09.683Z,99673.63
2023-01-11T00:02:21.771Z,99676.97
2023-01-11T00:02:34.436Z,99678.78
2023-01-11T00:02:46.936Z,99676.13
2023-01-11T00:03:00.977Z,99675.19
2023-01-11T00:03:13.580Z,99680.31
2023-01-11T00:03:28.913Z,99673.34
2023-01-11T00:03:40.830Z,99676.00
2023-01-11T00:03:53.040Z,99676.91
2023-01-11T00:04:05.077Z,99670.78
2023-01-11T00:04:17.344Z,99669.91
2023-01-11T00:04:30.669Z,99667.22
2023-01-11T00:04:42.816Z,99676.69
2023-01-11T00:04:54.882Z,99678.53
2023-01-11T00:05:07.444Z,99673.34
2023-01-11T00:05:19.500Z,99682.88
2023-01-11T00:05:31.914Z,99678.63
2023-01-11T00:05:45.412Z,99670.88
2023-01-11T00:05:58.836Z,99673.34
2023-01-11T00:06:11.397Z,99665.47
2023-01-11T00:06:23.459Z,99663.72
2023-01-11T00:06:35.453Z,99662.78
2023-01-11T00:06:47.630Z,99656.75
2023-01-11T00:06:59.751Z,99665.47
2023-01-11T00:07:11.940Z,99666.28
2023-01-11T00:07:23.871Z,99669.69
2023-01-11T00:07:36.073Z,99661.81
2023-01-11T00:07:48.018Z,99659.31
2023-01-11T00:07:59.982Z,99655.94
2023-01-11T00:08:12.177Z,99657.75
2023-01-11T00:08:28.448Z,99658.75
2023-01-11T00:08:40.431Z,99659.66
2023-01-11T00:08:52.587Z,99655.25
2023-01-11T00:09:04.590Z,99651.81
2023-01-11T00:09:17.079Z,99655.34
2023-01-11T00:09:28.976Z,99657.06
2023-01-11T00:09:40.981Z,99655.28
2023-01-11T00:09:53.076Z,99652.63
2023-01-11T00:10:05.706Z,99652.50
2023-01-11T00:10:18.729Z,99645.56
2023-01-11T00:10:30.691Z,99654.41
2023-01-11T00:10:42.839Z,99655.44
2023-01-11T00:10:55.324Z,99652.03
2023-01-11T00:11:13.978Z,99663.19
2023-01-11T00:11:26.473Z,99656.25
2023-01-11T00:11:38.430Z,99656.25
2023-01-11T00:11:50.383Z,99652.78
2023-01-11T00:12:02.351Z,99652.78
2023-01-11T00:12:14.959Z,99651.03
2023-01-11T00:12:26.940Z,99654.56
2023-01-11T00:12:38.959Z,99656.25
2023-01-11T00:12:50.897Z,99660.56
2023-01-11T00:13:03.909Z,99647.53
2023-01-11T00:13:16.419Z,99647.47
2023-01-11T00:13:29.261Z,99649.09
2023-01-11T00:13:41.455Z,99651.75
2023-01-11T00:13:53.369Z,99654.19
2023-01-11T00:14:05.346Z,99653.31
2023-01-11T00:14:17.424Z,99648.97
2023-01-11T00:14:29.375Z,99651.59
2023-01-11T00:14:41.483Z,99657.53
2023-01-11T00:14:53.387Z,99650.59
2023-01-11T00:15:05.973Z,99653.94
2023-01-11T00:15:17.963Z,99653.91
2023-01-11T00:15:30.133Z,99656.41
2023-01-11T00:15:42.844Z,99656.41
2023-01-11T00:15:54.848Z,99659.81
2023-01-11T00:16:08.592Z,99656.28
2023-01-11T00:16:20.586Z,99657.06
2023-01-11T00:16:32.543Z,99657.91
2023-01-11T00:16:44.519Z,99653.59
2023-01-11T00:16:59.341Z,99657.06
2023-01-11T00:17:11.315Z,99658.72
2023-01-11T00:17:23.576Z,99653.44
2023-01-11T00:17:35.540Z,99653.38
2023-01-11T00:17:47.455Z,99654.19
2023-01-11T00:17:59.470Z,99654.13
2023-01-11T00:18:12.146Z,99649.78
2023-01-11T00:18:24.071Z,99651.41
2023-01-11T00:18:36.420Z,99647.94
2023-01-11T00:18:48.334Z,99644.53
2023-01-11T00:19:00.270Z,99639.34
2023-01-11T00:19:12.668Z,99640.28
2023-01-11T00:19:24.749Z,99642.91
2023-01-11T00:19:36.745Z,99642.28
2023-01-11T00:19:48.923Z,99651.91
2023-01-11T00:20:03.671Z,99645.09
2023-01-11T00:20:15.734Z,99645.44
2023-01-11T00:20:27.639Z,99649.81
2023-01-11T00:20:41.338Z,99647.31
2023-01-11T00:20:53.534Z,99644.84
2023-01-11T00:21:06.122Z,99643.22
2023-01-11T00:21:18.061Z,99643.13
2023-01-11T00:21:30.072Z,99642.34
2023-01-11T00:21:42.060Z,99650.94
2023-01-11T00:21:54.037Z,99643.28
2023-01-11T00:22:06.034Z,99646.72
2023-01-11T00:22:20.064Z,99639.06
2023-01-11T00:22:32.044Z,99644.16
2023-01-11T00:22:43.923Z,99649.25
2023-01-11T00:22:55.847Z,99644.84
2023-01-11T00:23:08.409Z,99641.41
2023-01-11T00:23:20.361Z,99642.31
2023-01-11T00:23:33.630Z,99638.91
2023-01-11T00:23:49.438Z,99638.91
2023-01-11T00:24:01.353Z,99635.47
2023-01-11T00:24:13.236Z,99639.75
2023-01-11T00:24:25.228Z,99638.00
2023-01-11T00:24:37.219Z,99634.41
2023-01-11T00:24:49.111Z,99634.41
2023-01-11T00:25:01.046Z,99639.47
2023-01-11T00:25:15.583Z,99640.38
2023-01-11T00:25:27.574Z,99640.31
2023-01-11T00:25:39.561Z,99643.72
2023-01-11T00:25:51.533Z,99637.63
2023-01-11T00:26:05.368Z,99645.34
2023-01-11T00:26:22.105Z,99640.16
2023-01-11T00:26:37.354Z,99643.50
2023-01-11T00:26:49.297Z,99640.81
2023-01-11T00:27:01.526Z,99643.38
2023-01-11T00:27:13.652Z,99642.41
2023-01-11T00:27:25.649Z,99638.88
2023-01-11T00:27:37.582Z,99631.91
2023-01-11T00:27:49.725Z,99638.81
2023-01-11T00:28:01.704Z,99638.72
2023-01-11T00:28:13.760Z,99641.25
2023-01-11T00:28:25.693Z,99627.38
2023-01-11T00:28:37.768Z,99636.91
2023-01-11T00:28:49.855Z,99637.75
2023-01-11T00:29:01.923Z,99632.53
2023-01-11T00:29:13.905Z,99640.22
2023-01-11T00:29:26.205Z,99641.91
2023-01-11T00:29:38.133Z,99635.00
2023-01-11T00:29:50.118Z,99640.97
2023-01-11T00:30:02.478Z,99635.81
2023-01-11T00:30:14.767Z,99634.91
2023-01-11T00:30:26.769Z,99636.66
2023-01-11T00:30:39.039Z,99641.84
2023-01-11T00:30:50.917Z,99639.19
2023-01-11T00:31:03.458Z,99640.03
2023-01-11T00:31:16.282Z,99637.47
2023-01-11T00:31:28.349Z,99642.66
2023-01-11T00:31:40.361Z,99639.25
2023-01-11T00:31:53.490Z,99641.19
2023-01-11T00:32:05.637Z,99638.56
2023-01-11T00:32:17.654Z,99637.63
2023-01-11T00:32:32.330Z,99637.75
2023-01-11T00:32:44.533Z,99637.84
2023-01-11T00:32:58.454Z,99636.16
2023-01-11T00:33:11.020Z,99637.19
2023-01-11T00:33:22.987Z,99638.97
2023-01-11T00:33:35.246Z,99640.91
2023-01-11T00:33:47.243Z,99643.63
2023-01-11T00:33:59.261Z,99641.94
2023-01-11T00:34:11.317Z,99647.19
2023-01-11T00:34:23.233Z,99640.31
2023-01-11T00:34:35.147Z,99639.56
2023-01-11T00:34:47.092Z,99642.44
2023-01-11T00:34:59.027Z,99639.88
2023-01-11T00:35:11.343Z,99638.81
2023-01-11T00:35:23.761Z,99634.66
2023-01-11T00:35:35.646Z,99636.28
2023-01-11T00:35:47.591Z,99637.91
2023-01-11T00:35:59.629Z,99636.91
2023-01-11T00:36:11.634Z,99638.53
2023-01-11T00:36:23.525Z,99634.16
2023-01-11T00:36:35.464Z,99633.34
2023-01-11T00:36:47.364Z,99635.88
2023-01-11T00:36:59.249Z,99633.19
2023-01-11T00:37:11.120Z,99629.81
2023-01-11T00:37:23.056Z,99631.53
2023-01-11T00:37:35.143Z,99632.31
2023-01-11T00:37:47.059Z,99633.13
2023-01-11T00:38:02.217Z,99633.94
2023-01-11T00:38:34.166Z,99625.25
2023-01-11T00:38:53.579Z,99631.13
2023-01-11T00:39:05.493Z,99632.72
2023-01-11T00:39:17.740Z,99632.66
2023-01-11T00:39:29.935Z,99625.72
2023-01-11T00:39:41.853Z,99630.06
2023-01-11T00:39:53.907Z,99632.56
2023-01-11T00:40:06.432Z,99625.75
2023-01-11T00:40:18.519Z,99624.94
2023-01-11T00:40:30.548Z,99624.09
2023-01-11T00:40:42.491Z,99629.16
2023-01-11T00:40:54.390Z,99623.97
2023-01-11T00:41:25.537Z,99623.94
2023-01-11T00:41:55.758Z,99626.59
2023-01-11T00:42:32.378Z,99621.38
2023-01-11T00:43:02.743Z,99619.66
2023-01-11T00:43:33.739Z,99616.16
2023-01-11T00:44:04.290Z,99618.63
2023-01-11T00:44:34.689Z,99610.81
2023-01-11T00:45:05.093Z,99603.81
2023-01-11T00:45:36.052Z,99609.66
2023-01-11T00:46:06.413Z,99606.03
2023-01-11T00:46:36.741Z,99602.47
2023-01-11T00:47:07.606Z,99602.41
2023-01-11T00:47:37.919Z,99600.50
2023-01-11T00:48:00.292Z,99598.66
2023-01-11T00:48:12.224Z,99591.91
2023-01-11T00:48:24.223Z,99595.44
2023-01-11T00:48:36.134Z,99597.22
2023-01-11T00:48:48.127Z,99593.66
2023-01-11T00:48:59.997Z,99591.88
2023-01-11T00:49:12.016Z,99594.38
2023-01-11T00:49:24.148Z,99592.59
2023-01-11T00:49:36.144Z,99594.31
2023-01-11T00:49:48.181Z,99595.09
2023-01-11T00:50:00.096Z,99594.19
2023-01-11T00:50:12.132Z,99593.31
2023-01-11T00:50:25.482Z,99589.78
2023-01-11T00:50:40.490Z,99591.44
2023-01-11T00:50:55.276Z,99591.44
2023-01-11T00:51:07.343Z,99590.56
2023-01-11T00:51:19.322Z,99593.22
2023-01-11T00:51:31.347Z,99594.13
2023-01-11T00:51:43.315Z,99590.91
2023-01-11T00:51:55.294Z,99598.84
2023-01-11T00:52:09.612Z,99595.25
2023-01-11T00:52:22.192Z,99594.28
2023-01-11T00:52:34.164Z,99589.16
2023-01-11T00:52:46.103Z,99589.09
2023-01-11T00:52:59.217Z,99590.03
2023-01-11T00:53:11.316Z,99590.09
2023-01-11T00:53:23.286Z,99586.72
2023-01-11T00:53:35.286Z,99591.06
2023-01-11T00:53:48.334Z,99588.47
2023-01-11T00:54:00.364Z,99597.13
2023-01-11T00:54:12.269Z,99591.88
2023-01-11T00:54:24.232Z,99589.22
2023-01-11T00:54:37.476Z,99581.38
2023-01-11T00:54:49.775Z,99590.75
2023-01-11T00:55:01.834Z,99588.13
2023-01-11T00:55:13.811Z,99589.81
2023-01-11T00:55:26.762Z,99586.41
2023-01-11T00:55:38.962Z,99582.97
2023-01-11T00:55:50.852Z,99588.13
2023-01-11T00:56:02.934Z,99587.25
2023-01-11T00:56:14.813Z,99583.78
2023-01-11T00:56:26.673Z,99590.69
2023-01-11T00:56:38.786Z,99589.81
2023-01-11T00:56:50.740Z,99588.13
2023-01-11T00:57:03.155Z,99587.22
2023-01-11T00:57:15.038Z,99588.03
2023-01-11T00:57:26.941Z,99589.75
2023-01-11T00:57:39.032Z,99583.66
2023-01-11T00:57:51.449Z,99591.44
2023-01-11T00:58:04.062Z,99585.34
2023-01-11T00:58:16.162Z,99589.59
2023-01-11T00:58:28.102Z,99592.88
2023-01-11T00:58:40.050Z,99594.59
2023-01-11T00:58:51.985Z,99591.28
2023-01-11T00:59:04.703Z,99588.03
2023-01-11T00:59:16.770Z,99589.16
2023-01-11T00:59:28.760Z,99586.44
2023-01-11T00:59:41.150Z,99588.19
2023-01-11T00:59:53.044Z,99587.25
2023-01-11T01:00:06.399Z,99584.63
2023-01-11T01:00:20.220Z,99587.22
2023-01-11T01:00:32.193Z,99591.69
2023-01-11T01:00:44.123Z,99589.97
2023-01-11T01:00:56.132Z,99585.56
2023-01-11T01:01:08.254Z,99584.63
2023-01-11T01:01:20.493Z,99586.41
2023-01-11T01:01:32.707Z,99588.94
2023-01-11T01:01:45.059Z,99588.00
2023-01-11T01:01:57.056Z,99588.81
2023-01-11T01:02:10.143Z,99583.59
2023-01-11T01:02:22.535Z,99584.47
2023-01-11T01:02:34.595Z,99584.47
2023-01-11T01:02:47.098Z,99580.16
2023-01-11T01:02:59.322Z,99587.97
2023-01-11T01:03:11.351Z,99586.25
2023-01-11T01:03:23.286Z,99581.16
2023-01-11T01:03:35.470Z,99582.84
2023-01-11T01:03:47.370Z,99584.47
2023-01-11T01:04:02.759Z,99575.81
2023-01-11T01:04:14.676Z,99586.09
2023-01-11T01:04:26.580Z,99584.28
2023-01-11T01:04:39.396Z,99581.78
2023-01-11T01:04:51.517Z,99584.41
2023-01-11T01:05:03.654Z,99581.81
2023-01-11T01:05:16.068Z,99584.41
2023-01-11T01:05:28.115Z,99580.91
2023-01-11T01:05:40.073Z,99578.28
2023-01-11T01:05:54.827Z,99583.41
2023-01-11T01:06:06.745Z,99580.72
2023-01-11T01:06:19.101Z,99583.25
2023-01-11T01:06:31.192Z,99582.34
2023-01-11T01:06:43.169Z,99577.97
2023-01-11T01:06:55.223Z,99586.69
2023-01-11T01:07:07.603Z,99579.72
2023-01-11T01:07:19.485Z,99584.94
2023-01-11T01:07:31.585Z,99580.66
2023-01-11T01:07:43.964Z,99579.84
2023-01-11T01:07:55.890Z,99578.94
2023-01-11T01:08:09.964Z,99586.72
2023-01-11T01:08:21.907Z,99577.16
2023-01-11T01:08:33.969Z,99578.94
2023-01-11T01:08:45.865Z,99577.16
2023-01-11T01:08:57.804Z,99583.16
2023-01-11T01:09:09.812Z,99585.72
2023-01-11T01:09:21.961Z,99581.31
2023-01-11T01:09:34.504Z,99583.03
2023-01-11T01:09:46.439Z,99585.59
2023-01-11T01:09:58.637Z,99580.31
2023-01-11T01:10:12.802Z,99582.09
2023-01-11T01:10:24.695Z,99584.69
2023-01-11T01:10:36.600Z,99578.56
2023-01-11T01:10:52.193Z,99585.44
2023-01-11T01:11:04.177Z,99580.25
2023-01-11T01:11:16.166Z,99581.91
2023-01-11T01:11:28.172Z,99585.31
2023-01-11T01:11:40.072Z,99581.84
2023-01-11T01:11:52.092Z,99578.50
2023-01-11T01:12:06.889Z,99578.63
2023-01-11T01:12:37.353Z,99582.03
2023-01-11T01:13:07.771Z,99577.56
2023-01-11T01:13:38.189Z,99572.28
2023-01-11T01:14:08.650Z,99582.69
2023-01-11T01:14:28.733Z,99578.44
2023-01-11T01:14:42.200Z,99571.53
2023-01-11T01:14:54.138Z,99575.06
2023-01-11T01:15:06.544Z,99567.19
2023-01-11T01:15:19.454Z,99567.16
2023-01-11T01:15:32.256Z,99573.16
2023-01-11T01:15:44.317Z,99568.78
2023-01-11T01:15:58.793Z,99572.19
2023-01-11T01:16:10.830Z,99572.19
2023-01-11T01:16:22.945Z,99576.47
2023-01-11T01:16:34.931Z,99578.16
2023-01-11T01:16:47.774Z,99589.38
2023-01-11T01:17:08.138Z,99586.09
2023-01-11T01:17:20.137Z,99587.03
2023-01-11T01:17:32.075Z,99573.16
2023-01-11T01:17:44.087Z,99576.66
2023-01-11T01:17:56.562Z,99569.75
2023-01-11T01:18:09.192Z,99565.47
2023-01-11T01:18:22.187Z,99562.88
2023-01-11T01:18:34.059Z,99571.81
2023-01-11T01:18:46.236Z,99566.72
2023-01-11T01:18:59.352Z,99572.06
2023-01-11T01:19:12.177Z,99576.44
2023-01-11T01:19:27.606Z,99574.66
2023-01-11T01:19:39.594Z,99571.97
2023-01-11T01:19:51.650Z,99571.06
2023-01-11T01:20:04.350Z,99571.88
2023-01-11T01:20:16.434Z,99576.09
2023-01-11T01:20:28.492Z,99576.91
2023-01-11T01:20:42.913Z,99571.69
2023-01-11T01:20:54.858Z,99573.34
2023-01-11T01:21:06.743Z,99574.13
2023-01-11T01:21:18.900Z,99579.34
2023-01-11T01:21:30.828Z,99574.94
2023-01-11T01:21:42.862Z,99574.06
2023-01-11T01:21:56.230Z,99573.16
2023-01-11T01:22:08.403Z,99573.16
2023-01-11T01:22:20.395Z,99572.31
2023-01-11T01:22:32.382Z,99575.75
2023-01-11T01:22:44.330Z,99569.63
2023-01-11T01:22:56.287Z,99569.59
2023-01-11T01:23:08.272Z,99573.88
2023-01-11T01:23:20.194Z,99574.78
2023-01-11T01:23:32.127Z,99570.56
2023-01-11T01:23:44.053Z,99566.28
2023-01-11T01:23:57.047Z,99567.13
2023-01-11T01:24:09.000Z,99572.28
2023-01-11T01:24:21.588Z,99561.00
2023-01-11T01:24:33.938Z,99568.78
2023-01-11T01:24:45.996Z,99569.59
2023-01-11T01:24:58.027Z,99564.41
2023-01-11T01:25:10.273Z,99566.09
2023-01-11T01:25:22.530Z,99567.81
2023-01-11T01:25:36.725Z,99566.97
2023-01-11T01:25:48.648Z,99566.19
2023-01-11T01:26:06.105Z,99569.94
2023-01-11T01:26:18.054Z,99570.78
2023-01-11T01:26:30.000Z,99557.88
2023-01-11T01:26:42.081Z,99562.97
2023-01-11T01:26:54.571Z,99559.50
2023-01-11T01:27:06.569Z,99559.50
2023-01-11T01:27:20.024Z,99558.63
2023-01-11T01:27:31.984Z,99563.06
2023-01-11T01:27:44.230Z,99563.06
2023-01-11T01:27:56.145Z,99559.66
2023-01-11T01:28:08.078Z,99569.16
2023-01-11T01:28:22.411Z,99565.66
2023-01-11T01:28:34.433Z,99573.50
2023-01-11T01:28:46.407Z,99571.72
2023-01-11T01:28:58.289Z,99566.50
2023-01-11T01:29:10.323Z,99563.13
2023-01-11T01:29:22.232Z,99572.84
2023-01-11T01:29:34.204Z,99567.66
2023-01-11T01:29:46.253Z,99558.16
2023-01-11T01:29:58.166Z,99564.28
2023-01-11T01:30:10.880Z,99571.97
2023-01-11T01:30:22.828Z,99558.13
2023-01-11T01:30:34.784Z,99560.69
2023-01-11T01:30:50.951Z,99560.63
2023-01-11T01:31:03.018Z,99564.94
2023-01-11T01:31:14.944Z,99571.00
2023-01-11T01:31:26.934Z,99571.81
2023-01-11T01:31:38.948Z,99559.75
2023-01-11T01:31:51.126Z,99560.53
2023-01-11T01:32:03.084Z,99557.06
2023-01-11T01:32:14.980Z,99554.41
2023-01-11T01:32:26.996Z,99554.38
2023-01-11T01:32:39.149Z,99555.19
2023-01-11T01:32:51.111Z,99552.53
2023-01-11T01:33:02.983Z,99555.97
2023-01-11T01:33:15.015Z,99554.19
2023-01-11T01:33:26.952Z,99553.34
2023-01-11T01:33:39.102Z,99560.19
2023-01-11T01:33:51.019Z,99555.00
2023-01-11T01:34:03.010Z,99545.53
2023-01-11T01:34:17.964Z,99551.53
2023-01-11T01:34:29.907Z,99550.63
2023-01-11T01:34:41.841Z,99552.34
2023-01-11T01:34:53.721Z,99544.56
2023-01-11T01:35:06.015Z,99555.72
2023-01-11T01:35:17.894Z,99548.75
2023-01-11T01:35:30.006Z,99554.84
2023-01-11T01:35:41.885Z,99554.00
2023-01-11T01:35:53.809Z,99544.59
2023-01-11T01:36:06.052Z,99548.81
2023-01-11T01:36:18.048Z,99549.63
2023-01-11T01:36:29.976Z,99547.03
2023-01-11T01:36:42.152Z,99535.81
2023-01-11T01:36:54.104Z,99543.63
2023-01-11T01:37:11.032Z,99544.44
2023-01-11T01:37:23.303Z,99543.50
2023-01-11T01:37:35.318Z,99536.59
2023-01-11T01:37:47.229Z,99543.47
2023-01-11T01:37:59.198Z,99537.44
2023-01-11T01:38:11.181Z,99542.53
2023-01-11T01:38:25.789Z,99539.88
2023-01-11T01:38:38.119Z,99541.59
2023-01-11T01:38:50.099Z,99551.13
2023-01-11T01:39:03.278Z,99545.88
2023-01-11T01:39:15.237Z,99547.66
2023-01-11T01:39:27.936Z,99544.19
2023-01-11T01:39:39.824Z,99546.84
2023-01-11T01:39:51.909Z,99544.38
2023-01-11T01:40:05.020Z,99550.34
2023-01-11T01:40:17.097Z,99546.00
2023-01-11T01:40:29.047Z,99540.78
2023-01-11T01:40:48.591Z,99548.66
2023-01-11T01:41:00.968Z,99537.44
2023-01-11T01:41:13.627Z,99539.97
2023-01-11T01:41:25.542Z,99541.66
2023-01-11T01:41:38.263Z,99539.88
2023-01-11T01:41:50.170Z,99545.06
2023-01-11T01:42:02.100Z,99539.00
2023-01-11T01:42:19.191Z,99541.59
2023-01-11T01:42:31.107Z,99539.06
2023-01-11T01:42:43.203Z,99539.09
2023-01-11T01:42:55.218Z,99540.84
2023-01-11T01:43:11.164Z,99548.56
2023-01-11T01:43:44.014Z,99545.25
2023-01-11T01:44:02.733Z,99543.63
2023-01-11T01:44:52.795Z,99542.63
2023-01-11T01:45:24.404Z,99545.94
2023-01-11T01:45:36.373Z,99544.97
2023-01-11T01:45:50.245Z,99550.19
2023-01-11T01:46:02.227Z,99550.13
2023-01-11T01:46:15.026Z,99543.19
2023-01-11T01:46:29.905Z,99542.34
2023-01-11T01:46:41.944Z,99547.47
2023-01-11T01:46:53.885Z,99541.41
2023-01-11T01:47:05.863Z,99539.69
2023-01-11T01:47:20.162Z,99537.09
2023-01-11T01:47:45.503Z,99537.91
2023-01-11T01:48:00.872Z,99534.41
2023-01-11T01:48:16.004Z,99536.09
2023-01-11T01:48:28.382Z,99536.09
2023-01-11T01:48:46.067Z,99529.13
2023-01-11T01:48:57.932Z,99532.72
2023-01-11T01:49:14.895Z,99536.97
2023-01-11T01:49:26.836Z,99534.50
2023-01-11T01:49:40.654Z,99538.84
2023-01-11T01:49:52.893Z,99536.41
2023-01-11T01:50:12.621Z,99543.28
2023-01-11T01:50:46.395Z,99532.91
2023-01-11T01:51:02.089Z,99525.91
2023-01-11T01:51:21.089Z,99522.44
2023-01-11T01:51:54.736Z,99538.81
2023-01-11T01:52:08.773Z,99545.75
2023-01-11T01:52:21.331Z,99546.59
2023-01-11T01:52:35.360Z,99543.19
2023-01-11T01:52:51.858Z,99544.97
2023-01-11T01:53:12.632Z,99544.19
2023-01-11T01:53:37.001Z,99544.38
2023-01-11T01:53:52.626Z,99543.63
2023-01-11T01:54:09.024Z,99539.00
2023-01-11T01:54:27.547Z,99539.03
2023-01-11T01:54:45.017Z,99539.94
2023-01-11T01:55:05.692Z,99550.69
2023-01-11T01:55:26.101Z,99555.88
2023-01-11T01:55:41.140Z,99554.06
2023-01-11T01:55:57.827Z,99548.81
2023-01-11T01:56:42.748Z,99558.19
2023-01-11T01:57:00.493Z,99547.81
2023-01-11T01:57:23.989Z,99552.97
2023-01-11T01:57:39.970Z,99550.47
2023-01-11T01:57:53.530Z,99553.13
2023-01-11T01:58:12.256Z,99544.59
2023-01-11T01:58:31.309Z,99544.59
2023-01-11T01:58:54.350Z,99542.91
2023-01-11T01:59:12.760Z,99545.41
2023-01-11T01:59:27.338Z,99544.59
2023-01-11T01:59:41.530Z,99541.13
2023-01-11T01:59:57.812Z,99545.38
2023-01-11T02:00:11.014Z,99543.63
2023-01-11T02:00:23.100Z,99545.38
2023-01-11T02:00:37.625Z,99543.69
2023-01-11T02:00:49.639Z,99548.81
2023-01-11T02:01:22.548Z,99540.19
2023-01-11T02:01:49.916Z,99539.31
2023-01-11T02:02:02.093Z,99544.53
2023-01-11T02:02:14.292Z,99536.88
2023-01-11T02:02:26.487Z,99539.41
2023-01-11T02:02:40.880Z,99539.41
2023-01-11T02:02:53.584Z,99539.34
2023-01-11T02:03:06.381Z,99540.19
2023-01-11T02:03:22.674Z,99537.56
2023-01-11T02:03:34.618Z,99530.59
2023-01-11T02:03:47.507Z,99541.84
2023-01-11T02:03:59.612Z,99538.31
2023-01-11T02:04:16.816Z,99534.81
2023-01-11T02:04:30.014Z,99537.44
2023-01-11T02:04:44.875Z,99538.31
2023-01-11T02:04:58.086Z,99534.16
2023-01-11T02:05:11.836Z,99534.94
2023-01-11T02:05:23.893Z,99539.16
2023-01-11T02:05:35.839Z,99538.25
2023-01-11T02:05:49.267Z,99535.59
2023-01-11T02:06:01.467Z,99541.59
2023-01-11T02:06:13.806Z,99535.59
2023-01-11T02:06:26.084Z,99537.28
2023-01-11T02:06:39.035Z,99533.88
2023-01-11T02:06:54.919Z,99540.78
2023-01-11T02:07:11.195Z,99541.72
2023-01-11T02:07:28.767Z,99544.34
2023-01-11T02:07:41.463Z,99540.84
2023-01-11T02:07:56.254Z,99540.81
2023-01-11T02:08:16.249Z,99539.03
2023-01-11T02:08:37.327Z,99540.72
2023-01-11T02:08:56.665Z,99539.00
2023-01-11T02:09:32.855Z,99535.59
2023-01-11T02:09:55.622Z,99543.59
2023-01-11T02:10:16.715Z,99540.94
2023-01-11T02:10:29.015Z,99542.75
2023-01-11T02:10:40.972Z,99534.06
2023-01-11T02:10:54.306Z,99538.41
2023-01-11T02:11:27.683Z,99539.31
2023-01-11T02:11:43.436Z,99541.03
2023-01-11T02:11:57.379Z,99542.00
2023-01-11T02:12:09.735Z,99541.19
2023-01-11T02:12:24.523Z,99541.19
2023-01-11T02:12:42.337Z,99542.00
2023-01-11T02:13:03.156Z,99546.22
2023-01-11T02:13:15.366Z,99547.94
2023-01-11T02:13:27.830Z,99543.56
2023-01-11T02:13:46.024Z,99550.38
2023-01-11T02:14:05.590Z,99542.56
2023-01-11T02:14:20.211Z,99546.94
2023-01-11T02:14:33.526Z,99547.94
2023-01-11T02:14:47.256Z,99547.97
2023-01-11T02:15:01.083Z,99546.19
2023-01-11T02:15:14.644Z,99544.78
2023-01-11T02:15:27.148Z,99545.66
2023-01-11T02:15:39.279Z,99539.69
2023-01-11T02:16:07.529Z,99550.75
2023-01-11T02:16:20.118Z,99550.72
2023-01-11T02:16:32.424Z,99548.09
2023-01-11T02:16:44.730Z,99542.97
2023-01-11T02:16:56.740Z,99550.75
2023-01-11T02:17:09.385Z,99541.19
2023-01-11T02:17:21.792Z,99540.41
2023-01-11T02:17:33.801Z,99546.66
2023-01-11T02:17:45.816Z,99542.16
2023-01-11T02:17:57.898Z,99546.38
2023-01-11T02:18:12.300Z,99541.19
2023-01-11T02:18:24.256Z,99542.09
2023-01-11T02:18:38.383Z,99536.13
2023-01-11T02:18:50.622Z,99537.91
2023-01-11T02:19:06.491Z,99537.91
2023-01-11T02:19:28.066Z,99537.00
2023-01-11T02:20:26.776Z,99541.09
2023-01-11T02:21:06.351Z,99547.94
2023-01-11T02:21:26.718Z,99537.56
2023-01-11T02:21:57.183Z,99537.81
2023-01-11T02:22:27.856Z,99540.34
2023-01-11T02:23:11.831Z,99541.31
2023-01-11T02:23:57.568Z,99547.19
2023-01-11T02:24:32.049Z,99544.94
2023-01-11T02:25:16.301Z,99553.53
2023-01-11T02:25:47.128Z,99543.13
2023-01-11T02:26:31.611Z,99543.84
2023-01-11T02:27:17.776Z,99549.88
2023-01-11T02:27:48.207Z,99542.00
2023-01-11T02:28:15.067Z,99529.78
2023-01-11T02:28:31.879Z,99527.44
2023-01-11T02:28:43.790Z,99542.19
2023-01-11T02:29:10.402Z,99537.91
2023-01-11T02:29:41.954Z,99541.31
2023-01-11T02:30:17.307Z,99536.13
2023-01-11T02:31:06.721Z,99534.28
2023-01-11T02:31:41.309Z,99537.63
2023-01-11T02:32:02.206Z,99529.75
2023-01-11T02:32:31.659Z,99525.28
2023-01-11T02:32:55.828Z,99526.91
2023-01-11T02:33:19.884Z,99524.19
2023-01-11T02:33:54.550Z,99530.16
2023-01-11T02:34:27.266Z,99526.66
2023-01-11T02:34:57.151Z,99529.09
2023-01-11T02:35:15.692Z,99524.69
2023-01-11T02:35:48.567Z,99521.09
2023-01-11T02:36:24.802Z,99533.91
2023-01-11T02:36:51.678Z,99526.97
2023-01-11T02:37:21.750Z,99524.31
2023-01-11T02:37:41.736Z,99521.72
2023-01-11T02:38:12.055Z,99522.63
2023-01-11T02:38:33.607Z,99524.31
2023-01-11T02:39:10.948Z,99525.09
2023-01-11T02:39:44.557Z,99521.63
2023-01-11T02:40:16.875Z,99519.00
2023-01-11T02:40:48.064Z,99531.22
2023-01-11T02:41:55.456Z,99526.28
2023-01-11T02:42:49.085Z,99525.78
2023-01-11T02:43:34.084Z,99518.66
2023-01-11T02:44:19.542Z,99519.31
2023-01-11T02:44:58.725Z,99521.78
2023-01-11T02:45:44.498Z,99529.69
2023-01-11T02:46:12.162Z,99526.22
2023-01-11T02:46:31.501Z,99527.06
2023-01-11T02:46:53.884Z,99522.69
2023-01-11T02:47:18.368Z,99525.25
2023-01-11T02:47:45.244Z,99524.41
2023-01-11T02:48:14.501Z,99525.50
2023-01-11T02:48:58.813Z,99512.50
2023-01-11T02:49:32.307Z,99520.00
2023-01-11T02:50:07.675Z,99515.50
2023-01-11T02:50:29.781Z,99517.88
2023-01-11T02:51:05.853Z,99513.47
2023-01-11T02:51:38.253Z,99516.19
2023-01-11T02:52:14.634Z,99500.63
2023-01-11T02:52:36.388Z,99504.72
2023-01-11T02:53:00.921Z,99502.06
2023-01-11T02:53:18.560Z,99512.25
2023-01-11T02:53:51.192Z,99508.66
2023-01-11T02:54:08.953Z,99513.66
2023-01-11T02:54:24.103Z,99511.09
2023-01-11T02:54:37.971Z,99512.81
2023-01-11T02:54:56.427Z,99511.09
2023-01-11T02:55:13.286Z,99507.81
2023-01-11T02:55:31.156Z,99511.28
2023-01-11T02:55:49.381Z,99512.31
2023-01-11T02:56:07.125Z,99510.03
2023-01-11T02:56:23.393Z,99509.88
2023-01-11T02:56:40.880Z,99509.03
2023-01-11T02:56:58.678Z,99512.47
2023-01-11T02:57:12.125Z,99515.06
2023-01-11T02:57:26.582Z,99519.44
2023-01-11T02:57:39.836Z,99512.50
2023-01-11T02:57:56.252Z,99516.81
2023-01-11T02:58:11.317Z,99512.44
2023-01-11T02:58:27.262Z,99509.78
2023-01-11T02:58:44.671Z,99506.28
2023-01-11T02:58:58.443Z,99508.13
2023-01-11T02:59:17.564Z,99498.84
2023-01-11T02:59:33.067Z,99507.44
2023-01-11T02:59:48.979Z,99509.88
2023-01-11T03:00:02.203Z,99511.53
2023-01-11T03:00:16.872Z,99506.28
2023-01-11T03:00:29.178Z,99509.78
2023-01-11T03:00:42.409Z,99506.28
2023-01-11T03:00:55.873Z,99508.84
2023-01-11T03:01:08.080Z,99509.88
2023-01-11T03:01:22.611Z,99503.94
2023-01-11T03:01:47.339Z,99497.91
2023-01-11T03:01:59.651Z,99504.06
2023-01-11T03:02:12.913Z,99503.16
2023-01-11T03:02:25.362Z,99504.88
2023-01-11T03:02:37.353Z,99504.03
2023-01-11T03:03:33.750Z,99499.66
2023-01-11T03:03:45.694Z,99495.34
2023-01-11T03:03:58.834Z,99504.09
2023-01-11T03:04:32.883Z,99497.25
2023-01-11T03:04:44.830Z,99495.44
2023-01-11T03:04:56.875Z,99497.13
2023-01-11T03:05:13.712Z,99496.25
2023-01-11T03:05:25.699Z,99494.47
2023-01-11T03:05:43.775Z,99497.97